sensor_id;sensor_type;location;lat;lon;timestamp;P1;durP1;ratioP1;P2;durP2;ratioP2
55330;SDS011;58851;42.984;20.336;2024-03-07T00:00:10;44.70;;;24.90;;
55330;SDS011;58851;42.984;20.336;2024-03-07T00:02:41;38.40;;;24.75;;
55330;SDS011;58851;42.984;20.336;2024-03-07T00:05:07;33.63;;;24.80;;
55330;SDS011;58851;42.984;20.336;2024-03-07T00:07:33;30.33;;;19.80;;
55330;SDS011;58851;42.984;20.336;2024-03-07T00:10:02;29.98;;;20.42;;
55330;SDS011;58851;42.984;20.336;2024-03-07T00:12:29;32.85;;;20.73;;
55330;SDS011;58851;42.984;20.336;2024-03-07T00:14:55;31.02;;;20.27;;
55330;SDS011;58851;42.984;20.336;2024-03-07T00:17:21;28.48;;;20.67;;
55330;SDS011;58851;42.984;20.336;2024-03-07T00:19:48;22.75;;;16.60;;
55330;SDS011;58851;42.984;20.336;2024-03-07T00:22:14;23.48;;;15.85;;
55330;SDS011;58851;42.984;20.336;2024-03-07T00:24:40;27.95;;;19.35;;
55330;SDS011;58851;42.984;20.336;2024-03-07T00:27:07;30.13;;;19.75;;
55330;SDS011;58851;42.984;20.336;2024-03-07T00:29:33;24.75;;;15.00;;
55330;SDS011;58851;42.984;20.336;2024-03-07T00:32:03;21.25;;;14.07;;
55330;SDS011;58851;42.984;20.336;2024-03-07T00:34:29;20.05;;;13.77;;
55330;SDS011;58851;42.984;20.336;2024-03-07T00:36:55;21.80;;;15.35;;
55330;SDS011;58851;42.984;20.336;2024-03-07T00:39:24;23.65;;;15.23;;
55330;SDS011;58851;42.984;20.336;2024-03-07T00:41:50;22.80;;;16.55;;
55330;SDS011;58851;42.984;20.336;2024-03-07T00:44:16;17.48;;;12.88;;
55330;SDS011;58851;42.984;20.336;2024-03-07T00:46:42;20.60;;;13.68;;
55330;SDS011;58851;42.984;20.336;2024-03-07T00:49:08;20.45;;;14.38;;
55330;SDS011;58851;42.984;20.336;2024-03-07T00:51:34;17.65;;;12.57;;
55330;SDS011;58851;42.984;20.336;2024-03-07T00:54:00;17.38;;;12.00;;
55330;SDS011;58851;42.984;20.336;2024-03-07T00:56:26;20.63;;;13.55;;
55330;SDS011;58851;42.984;20.336;2024-03-07T00:58:53;24.88;;;17.05;;
55330;SDS011;58851;42.984;20.336;2024-03-07T01:01:19;21.10;;;14.27;;
55330;SDS011;58851;42.984;20.336;2024-03-07T01:03:45;22.95;;;15.02;;
55330;SDS011;58851;42.984;20.336;2024-03-07T01:06:11;23.27;;;14.32;;
55330;SDS011;58851;42.984;20.336;2024-03-07T01:08:37;30.35;;;19.88;;
55330;SDS011;58851;42.984;20.336;2024-03-07T01:11:03;24.65;;;17.92;;
55330;SDS011;58851;42.984;20.336;2024-03-07T01:13:37;19.17;;;14.45;;
55330;SDS011;58851;42.984;20.336;2024-03-07T01:16:07;15.45;;;11.27;;
55330;SDS011;58851;42.984;20.336;2024-03-07T01:18:33;49.53;;;27.85;;
55330;SDS011;58851;42.984;20.336;2024-03-07T01:21:02;31.98;;;22.00;;
55330;SDS011;58851;42.984;20.336;2024-03-07T01:23:30;26.73;;;17.50;;
55330;SDS011;58851;42.984;20.336;2024-03-07T01:25:56;18.95;;;12.57;;
55330;SDS011;58851;42.984;20.336;2024-03-07T01:28:23;21.17;;;14.82;;
55330;SDS011;58851;42.984;20.336;2024-03-07T01:30:50;17.48;;;10.68;;
55330;SDS011;58851;42.984;20.336;2024-03-07T01:33:16;18.17;;;11.60;;
55330;SDS011;58851;42.984;20.336;2024-03-07T01:35:42;22.33;;;12.60;;
55330;SDS011;58851;42.984;20.336;2024-03-07T01:38:08;20.02;;;12.95;;
55330;SDS011;58851;42.984;20.336;2024-03-07T01:40:35;16.05;;;10.43;;
55330;SDS011;58851;42.984;20.336;2024-03-07T01:43:01;25.52;;;12.23;;
55330;SDS011;58851;42.984;20.336;2024-03-07T01:45:28;21.40;;;10.88;;
55330;SDS011;58851;42.984;20.336;2024-03-07T01:47:54;22.20;;;14.02;;
55330;SDS011;58851;42.984;20.336;2024-03-07T01:50:22;27.38;;;15.00;;
55330;SDS011;58851;42.984;20.336;2024-03-07T01:52:49;26.05;;;15.70;;
55330;SDS011;58851;42.984;20.336;2024-03-07T01:55:16;23.08;;;15.02;;
55330;SDS011;58851;42.984;20.336;2024-03-07T01:57:43;20.05;;;14.15;;
55330;SDS011;58851;42.984;20.336;2024-03-07T02:00:11;18.23;;;12.60;;
55330;SDS011;58851;42.984;20.336;2024-03-07T02:02:37;19.20;;;13.45;;
55330;SDS011;58851;42.984;20.336;2024-03-07T02:05:03;21.50;;;13.43;;
55330;SDS011;58851;42.984;20.336;2024-03-07T02:07:29;24.08;;;14.32;;
55330;SDS011;58851;42.984;20.336;2024-03-07T02:09:59;22.98;;;15.65;;
55330;SDS011;58851;42.984;20.336;2024-03-07T02:12:26;23.33;;;16.33;;
55330;SDS011;58851;42.984;20.336;2024-03-07T02:14:51;25.38;;;15.63;;
55330;SDS011;58851;42.984;20.336;2024-03-07T02:17:17;23.42;;;16.70;;
55330;SDS011;58851;42.984;20.336;2024-03-07T02:19:45;23.63;;;17.10;;
55330;SDS011;58851;42.984;20.336;2024-03-07T02:22:11;29.17;;;16.60;;
55330;SDS011;58851;42.984;20.336;2024-03-07T02:24:38;21.88;;;13.30;;
55330;SDS011;58851;42.984;20.336;2024-03-07T02:27:04;27.50;;;16.60;;
55330;SDS011;58851;42.984;20.336;2024-03-07T02:29:30;24.48;;;17.77;;
55330;SDS011;58851;42.984;20.336;2024-03-07T02:31:56;23.73;;;16.65;;
55330;SDS011;58851;42.984;20.336;2024-03-07T02:34:21;26.05;;;17.40;;
55330;SDS011;58851;42.984;20.336;2024-03-07T02:36:47;22.83;;;14.57;;
55330;SDS011;58851;42.984;20.336;2024-03-07T02:39:13;21.48;;;15.23;;
55330;SDS011;58851;42.984;20.336;2024-03-07T02:41:40;33.65;;;22.80;;
55330;SDS011;58851;42.984;20.336;2024-03-07T02:44:06;32.90;;;19.77;;
55330;SDS011;58851;42.984;20.336;2024-03-07T02:46:31;34.50;;;24.00;;
55330;SDS011;58851;42.984;20.336;2024-03-07T02:48:57;27.02;;;15.40;;
55330;SDS011;58851;42.984;20.336;2024-03-07T02:51:24;23.73;;;16.60;;
55330;SDS011;58851;42.984;20.336;2024-03-07T02:53:50;27.27;;;16.20;;
55330;SDS011;58851;42.984;20.336;2024-03-07T02:56:15;27.15;;;15.98;;
55330;SDS011;58851;42.984;20.336;2024-03-07T02:58:41;18.77;;;13.13;;
55330;SDS011;58851;42.984;20.336;2024-03-07T03:01:07;20.88;;;13.13;;
55330;SDS011;58851;42.984;20.336;2024-03-07T03:03:33;19.27;;;12.98;;
55330;SDS011;58851;42.984;20.336;2024-03-07T03:05:59;22.33;;;12.90;;
55330;SDS011;58851;42.984;20.336;2024-03-07T03:08:25;33.63;;;22.30;;
55330;SDS011;58851;42.984;20.336;2024-03-07T03:10:53;112.60;;;66.30;;
55330;SDS011;58851;42.984;20.336;2024-03-07T03:13:21;115.35;;;64.25;;
55330;SDS011;58851;42.984;20.336;2024-03-07T03:15:48;77.65;;;48.45;;
55330;SDS011;58851;42.984;20.336;2024-03-07T03:18:14;42.00;;;26.80;;
55330;SDS011;58851;42.984;20.336;2024-03-07T03:20:41;32.70;;;25.23;;
55330;SDS011;58851;42.984;20.336;2024-03-07T03:23:08;17.17;;;12.32;;
55330;SDS011;58851;42.984;20.336;2024-03-07T03:25:38;17.10;;;12.00;;
55330;SDS011;58851;42.984;20.336;2024-03-07T03:28:07;17.40;;;12.35;;
55330;SDS011;58851;42.984;20.336;2024-03-07T03:30:39;16.52;;;11.20;;
55330;SDS011;58851;42.984;20.336;2024-03-07T03:33:06;18.80;;;11.27;;
55330;SDS011;58851;42.984;20.336;2024-03-07T03:35:33;18.35;;;11.25;;
55330;SDS011;58851;42.984;20.336;2024-03-07T03:37:59;16.63;;;10.05;;
55330;SDS011;58851;42.984;20.336;2024-03-07T03:40:26;16.75;;;11.23;;
55330;SDS011;58851;42.984;20.336;2024-03-07T03:42:51;20.85;;;14.82;;
55330;SDS011;58851;42.984;20.336;2024-03-07T03:45:17;25.95;;;16.67;;
55330;SDS011;58851;42.984;20.336;2024-03-07T03:47:43;31.30;;;18.67;;
55330;SDS011;58851;42.984;20.336;2024-03-07T03:50:13;24.77;;;16.30;;
55330;SDS011;58851;42.984;20.336;2024-03-07T03:52:39;35.17;;;20.85;;
55330;SDS011;58851;42.984;20.336;2024-03-07T03:55:06;46.22;;;29.35;;
55330;SDS011;58851;42.984;20.336;2024-03-07T03:57:34;51.30;;;34.42;;
55330;SDS011;58851;42.984;20.336;2024-03-07T04:00:01;65.68;;;40.33;;
55330;SDS011;58851;42.984;20.336;2024-03-07T04:02:37;103.43;;;51.22;;
55330;SDS011;58851;42.984;20.336;2024-03-07T04:05:04;95.30;;;49.95;;
55330;SDS011;58851;42.984;20.336;2024-03-07T04:07:30;52.35;;;28.67;;
55330;SDS011;58851;42.984;20.336;2024-03-07T04:09:56;47.40;;;28.15;;
55330;SDS011;58851;42.984;20.336;2024-03-07T04:12:27;47.55;;;28.48;;
55330;SDS011;58851;42.984;20.336;2024-03-07T04:14:53;57.15;;;32.95;;
55330;SDS011;58851;42.984;20.336;2024-03-07T04:17:22;52.65;;;32.65;;
55330;SDS011;58851;42.984;20.336;2024-03-07T04:19:48;51.72;;;31.13;;
55330;SDS011;58851;42.984;20.336;2024-03-07T04:22:13;37.38;;;23.83;;
55330;SDS011;58851;42.984;20.336;2024-03-07T04:24:39;33.70;;;21.92;;
55330;SDS011;58851;42.984;20.336;2024-03-07T04:27:05;37.53;;;25.10;;
55330;SDS011;58851;42.984;20.336;2024-03-07T04:29:34;31.77;;;20.95;;
55330;SDS011;58851;42.984;20.336;2024-03-07T04:32:00;33.05;;;21.98;;
55330;SDS011;58851;42.984;20.336;2024-03-07T04:34:28;28.40;;;19.80;;
55330;SDS011;58851;42.984;20.336;2024-03-07T04:36:58;22.92;;;17.17;;
55330;SDS011;58851;42.984;20.336;2024-03-07T04:39:26;39.58;;;26.38;;
55330;SDS011;58851;42.984;20.336;2024-03-07T04:44:34;89.45;;;60.78;;
55330;SDS011;58851;42.984;20.336;2024-03-07T04:47:01;96.35;;;66.28;;
55330;SDS011;58851;42.984;20.336;2024-03-07T04:49:30;69.00;;;48.75;;
55330;SDS011;58851;42.984;20.336;2024-03-07T04:51:57;53.67;;;35.30;;
55330;SDS011;58851;42.984;20.336;2024-03-07T04:54:25;41.85;;;29.20;;
55330;SDS011;58851;42.984;20.336;2024-03-07T04:56:52;30.58;;;22.65;;
55330;SDS011;58851;42.984;20.336;2024-03-07T04:59:18;30.45;;;20.73;;
55330;SDS011;58851;42.984;20.336;2024-03-07T05:01:45;16.67;;;11.23;;
55330;SDS011;58851;42.984;20.336;2024-03-07T05:04:12;14.48;;;10.27;;
55330;SDS011;58851;42.984;20.336;2024-03-07T05:06:39;14.63;;;9.45;;
55330;SDS011;58851;42.984;20.336;2024-03-07T05:09:06;15.25;;;10.05;;
55330;SDS011;58851;42.984;20.336;2024-03-07T05:11:53;14.95;;;10.95;;
55330;SDS011;58851;42.984;20.336;2024-03-07T05:14:20;15.95;;;11.52;;
55330;SDS011;58851;42.984;20.336;2024-03-07T05:16:50;21.33;;;14.18;;
55330;SDS011;58851;42.984;20.336;2024-03-07T05:19:33;14.57;;;10.68;;
55330;SDS011;58851;42.984;20.336;2024-03-07T05:22:01;23.75;;;14.55;;
55330;SDS011;58851;42.984;20.336;2024-03-07T05:24:27;27.83;;;18.45;;
55330;SDS011;58851;42.984;20.336;2024-03-07T05:26:53;16.10;;;12.15;;
55330;SDS011;58851;42.984;20.336;2024-03-07T05:29:19;11.20;;;8.27;;
55330;SDS011;58851;42.984;20.336;2024-03-07T05:31:45;10.38;;;7.22;;
55330;SDS011;58851;42.984;20.336;2024-03-07T05:34:14;16.88;;;10.57;;
55330;SDS011;58851;42.984;20.336;2024-03-07T05:36:48;38.83;;;21.45;;
55330;SDS011;58851;42.984;20.336;2024-03-07T05:39:15;13.45;;;8.32;;
55330;SDS011;58851;42.984;20.336;2024-03-07T05:41:43;15.52;;;9.48;;
55330;SDS011;58851;42.984;20.336;2024-03-07T05:44:13;14.02;;;8.57;;
55330;SDS011;58851;42.984;20.336;2024-03-07T05:46:42;20.45;;;11.05;;
55330;SDS011;58851;42.984;20.336;2024-03-07T05:51:39;18.67;;;10.07;;
55330;SDS011;58851;42.984;20.336;2024-03-07T05:54:12;15.85;;;10.98;;
55330;SDS011;58851;42.984;20.336;2024-03-07T05:56:39;20.40;;;12.75;;
55330;SDS011;58851;42.984;20.336;2024-03-07T05:59:06;15.43;;;7.43;;
55330;SDS011;58851;42.984;20.336;2024-03-07T06:01:34;7.97;;;4.95;;
55330;SDS011;58851;42.984;20.336;2024-03-07T06:04:01;21.67;;;14.80;;
55330;SDS011;58851;42.984;20.336;2024-03-07T06:06:30;17.48;;;10.68;;
55330;SDS011;58851;42.984;20.336;2024-03-07T06:08:58;21.63;;;13.90;;
55330;SDS011;58851;42.984;20.336;2024-03-07T06:11:34;14.88;;;9.50;;
55330;SDS011;58851;42.984;20.336;2024-03-07T06:14:02;12.85;;;8.15;;
55330;SDS011;58851;42.984;20.336;2024-03-07T06:16:31;11.38;;;7.30;;
55330;SDS011;58851;42.984;20.336;2024-03-07T06:19:02;10.02;;;7.22;;
55330;SDS011;58851;42.984;20.336;2024-03-07T06:21:29;11.15;;;7.50;;
55330;SDS011;58851;42.984;20.336;2024-03-07T06:23:58;14.25;;;9.48;;
55330;SDS011;58851;42.984;20.336;2024-03-07T06:26:34;18.75;;;12.10;;
55330;SDS011;58851;42.984;20.336;2024-03-07T06:29:16;21.88;;;11.85;;
55330;SDS011;58851;42.984;20.336;2024-03-07T06:31:42;11.27;;;7.30;;
55330;SDS011;58851;42.984;20.336;2024-03-07T06:34:11;9.43;;;6.28;;
55330;SDS011;58851;42.984;20.336;2024-03-07T06:36:38;12.23;;;8.30;;
55330;SDS011;58851;42.984;20.336;2024-03-07T06:39:04;25.15;;;14.00;;
55330;SDS011;58851;42.984;20.336;2024-03-07T06:41:31;26.30;;;15.23;;
55330;SDS011;58851;42.984;20.336;2024-03-07T06:44:00;21.80;;;13.02;;
55330;SDS011;58851;42.984;20.336;2024-03-07T06:46:26;15.05;;;10.15;;
55330;SDS011;58851;42.984;20.336;2024-03-07T06:48:52;8.95;;;6.45;;
55330;SDS011;58851;42.984;20.336;2024-03-07T06:51:18;9.65;;;5.97;;
55330;SDS011;58851;42.984;20.336;2024-03-07T06:53:44;16.45;;;9.93;;
55330;SDS011;58851;42.984;20.336;2024-03-07T06:56:13;17.65;;;10.38;;
55330;SDS011;58851;42.984;20.336;2024-03-07T06:58:39;15.00;;;10.30;;
55330;SDS011;58851;42.984;20.336;2024-03-07T07:01:06;30.63;;;16.13;;
55330;SDS011;58851;42.984;20.336;2024-03-07T07:03:36;28.50;;;15.70;;
55330;SDS011;58851;42.984;20.336;2024-03-07T07:06:03;24.80;;;14.15;;
55330;SDS011;58851;42.984;20.336;2024-03-07T07:08:32;26.02;;;15.60;;
55330;SDS011;58851;42.984;20.336;2024-03-07T07:10:58;26.02;;;17.15;;
55330;SDS011;58851;42.984;20.336;2024-03-07T07:13:24;23.90;;;14.63;;
55330;SDS011;58851;42.984;20.336;2024-03-07T07:15:50;18.55;;;13.65;;
55330;SDS011;58851;42.984;20.336;2024-03-07T07:18:18;14.70;;;10.25;;
55330;SDS011;58851;42.984;20.336;2024-03-07T07:20:44;17.50;;;11.55;;
55330;SDS011;58851;42.984;20.336;2024-03-07T07:23:10;17.15;;;13.00;;
55330;SDS011;58851;42.984;20.336;2024-03-07T07:25:35;13.15;;;8.57;;
55330;SDS011;58851;42.984;20.336;2024-03-07T07:28:02;20.20;;;13.25;;
55330;SDS011;58851;42.984;20.336;2024-03-07T07:30:29;16.70;;;10.88;;
55330;SDS011;58851;42.984;20.336;2024-03-07T07:32:55;14.77;;;10.10;;
55330;SDS011;58851;42.984;20.336;2024-03-07T07:35:21;20.38;;;13.70;;
55330;SDS011;58851;42.984;20.336;2024-03-07T07:37:48;22.23;;;14.25;;
55330;SDS011;58851;42.984;20.336;2024-03-07T07:40:16;25.08;;;16.83;;
55330;SDS011;58851;42.984;20.336;2024-03-07T07:42:48;24.17;;;16.35;;
55330;SDS011;58851;42.984;20.336;2024-03-07T07:45:17;32.25;;;21.90;;
55330;SDS011;58851;42.984;20.336;2024-03-07T07:47:44;39.42;;;18.13;;
55330;SDS011;58851;42.984;20.336;2024-03-07T07:50:11;25.92;;;19.33;;
55330;SDS011;58851;42.984;20.336;2024-03-07T07:52:42;24.98;;;18.75;;
55330;SDS011;58851;42.984;20.336;2024-03-07T07:55:15;27.38;;;18.48;;
55330;SDS011;58851;42.984;20.336;2024-03-07T07:57:53;22.10;;;15.98;;
55330;SDS011;58851;42.984;20.336;2024-03-07T08:00:19;19.85;;;14.55;;
55330;SDS011;58851;42.984;20.336;2024-03-07T08:02:51;20.00;;;13.55;;
55330;SDS011;58851;42.984;20.336;2024-03-07T08:05:22;26.45;;;18.48;;
55330;SDS011;58851;42.984;20.336;2024-03-07T08:07:49;24.17;;;15.95;;
55330;SDS011;58851;42.984;20.336;2024-03-07T08:10:16;16.42;;;10.60;;
55330;SDS011;58851;42.984;20.336;2024-03-07T08:12:43;19.10;;;11.57;;
55330;SDS011;58851;42.984;20.336;2024-03-07T08:15:09;20.35;;;13.65;;
55330;SDS011;58851;42.984;20.336;2024-03-07T08:17:39;25.88;;;19.55;;
55330;SDS011;58851;42.984;20.336;2024-03-07T08:20:15;28.10;;;18.48;;
55330;SDS011;58851;42.984;20.336;2024-03-07T08:22:43;40.65;;;25.30;;
55330;SDS011;58851;42.984;20.336;2024-03-07T08:25:13;29.77;;;20.73;;
55330;SDS011;58851;42.984;20.336;2024-03-07T08:27:40;24.13;;;16.08;;
55330;SDS011;58851;42.984;20.336;2024-03-07T08:30:07;45.55;;;29.15;;
55330;SDS011;58851;42.984;20.336;2024-03-07T08:35:10;29.10;;;20.88;;
55330;SDS011;58851;42.984;20.336;2024-03-07T08:37:37;41.17;;;27.00;;
55330;SDS011;58851;42.984;20.336;2024-03-07T08:40:03;27.85;;;17.98;;
55330;SDS011;58851;42.984;20.336;2024-03-07T08:42:30;27.35;;;17.55;;
55330;SDS011;58851;42.984;20.336;2024-03-07T08:44:59;23.85;;;14.90;;
55330;SDS011;58851;42.984;20.336;2024-03-07T08:47:25;39.08;;;24.60;;
55330;SDS011;58851;42.984;20.336;2024-03-07T08:49:53;31.40;;;19.23;;
55330;SDS011;58851;42.984;20.336;2024-03-07T08:52:19;53.38;;;29.65;;
55330;SDS011;58851;42.984;20.336;2024-03-07T08:54:45;86.35;;;44.08;;
55330;SDS011;58851;42.984;20.336;2024-03-07T08:57:11;46.90;;;26.48;;
55330;SDS011;58851;42.984;20.336;2024-03-07T08:59:39;49.15;;;29.38;;
55330;SDS011;58851;42.984;20.336;2024-03-07T09:02:05;23.88;;;15.93;;
55330;SDS011;58851;42.984;20.336;2024-03-07T09:04:31;10.73;;;8.20;;
55330;SDS011;58851;42.984;20.336;2024-03-07T09:06:56;34.70;;;20.17;;
55330;SDS011;58851;42.984;20.336;2024-03-07T09:09:23;18.75;;;14.48;;
55330;SDS011;58851;42.984;20.336;2024-03-07T09:11:49;12.07;;;7.93;;
55330;SDS011;58851;42.984;20.336;2024-03-07T09:14:14;14.18;;;11.23;;
55330;SDS011;58851;42.984;20.336;2024-03-07T09:16:40;17.50;;;11.93;;
55330;SDS011;58851;42.984;20.336;2024-03-07T09:19:06;20.98;;;12.73;;
55330;SDS011;58851;42.984;20.336;2024-03-07T09:21:34;32.60;;;24.92;;
55330;SDS011;58851;42.984;20.336;2024-03-07T09:24:00;14.73;;;10.95;;
55330;SDS011;58851;42.984;20.336;2024-03-07T09:26:26;13.05;;;10.60;;
55330;SDS011;58851;42.984;20.336;2024-03-07T09:28:52;8.60;;;6.72;;
55330;SDS011;58851;42.984;20.336;2024-03-07T09:31:19;24.30;;;16.30;;
55330;SDS011;58851;42.984;20.336;2024-03-07T09:33:45;44.00;;;29.58;;
55330;SDS011;58851;42.984;20.336;2024-03-07T09:36:12;12.50;;;8.75;;
55330;SDS011;58851;42.984;20.336;2024-03-07T09:38:39;20.15;;;13.50;;
55330;SDS011;58851;42.984;20.336;2024-03-07T09:41:06;11.73;;;7.32;;
55330;SDS011;58851;42.984;20.336;2024-03-07T09:43:31;11.95;;;9.02;;
55330;SDS011;58851;42.984;20.336;2024-03-07T09:45:59;12.82;;;11.63;;
55330;SDS011;58851;42.984;20.336;2024-03-07T09:48:28;17.55;;;10.25;;
55330;SDS011;58851;42.984;20.336;2024-03-07T09:50:54;8.20;;;5.38;;
55330;SDS011;58851;42.984;20.336;2024-03-07T09:53:23;4.70;;;3.50;;
55330;SDS011;58851;42.984;20.336;2024-03-07T09:55:51;4.47;;;3.10;;
55330;SDS011;58851;42.984;20.336;2024-03-07T09:58:19;12.70;;;5.35;;
55330;SDS011;58851;42.984;20.336;2024-03-07T10:00:45;4.63;;;2.90;;
55330;SDS011;58851;42.984;20.336;2024-03-07T10:03:15;3.38;;;2.30;;
55330;SDS011;58851;42.984;20.336;2024-03-07T10:05:45;7.88;;;4.97;;
55330;SDS011;58851;42.984;20.336;2024-03-07T10:08:11;7.07;;;3.35;;
55330;SDS011;58851;42.984;20.336;2024-03-07T10:10:38;13.98;;;7.70;;
55330;SDS011;58851;42.984;20.336;2024-03-07T10:13:04;7.43;;;4.50;;
55330;SDS011;58851;42.984;20.336;2024-03-07T10:15:33;4.30;;;2.40;;
55330;SDS011;58851;42.984;20.336;2024-03-07T10:17:59;6.07;;;4.30;;
55330;SDS011;58851;42.984;20.336;2024-03-07T10:20:28;15.15;;;6.40;;
55330;SDS011;58851;42.984;20.336;2024-03-07T10:22:53;3.58;;;2.03;;
55330;SDS011;58851;42.984;20.336;2024-03-07T10:25:21;4.53;;;2.90;;
55330;SDS011;58851;42.984;20.336;2024-03-07T10:27:50;7.07;;;4.15;;
55330;SDS011;58851;42.984;20.336;2024-03-07T10:30:16;2.85;;;1.45;;
55330;SDS011;58851;42.984;20.336;2024-03-07T10:32:46;2.97;;;1.85;;
55330;SDS011;58851;42.984;20.336;2024-03-07T10:35:13;4.53;;;2.75;;
55330;SDS011;58851;42.984;20.336;2024-03-07T10:37:40;10.75;;;7.25;;
55330;SDS011;58851;42.984;20.336;2024-03-07T10:40:06;8.65;;;4.95;;
55330;SDS011;58851;42.984;20.336;2024-03-07T10:42:44;3.20;;;1.70;;
55330;SDS011;58851;42.984;20.336;2024-03-07T10:45:17;111.30;;;60.75;;
55330;SDS011;58851;42.984;20.336;2024-03-07T10:47:54;6.07;;;3.80;;
55330;SDS011;58851;42.984;20.336;2024-03-07T10:53:19;5.72;;;2.97;;
55330;SDS011;58851;42.984;20.336;2024-03-07T11:04:29;7.10;;;5.30;;
55330;SDS011;58851;42.984;20.336;2024-03-07T11:06:56;13.82;;;8.20;;
55330;SDS011;58851;42.984;20.336;2024-03-07T11:09:24;7.53;;;5.30;;
55330;SDS011;58851;42.984;20.336;2024-03-07T11:11:54;11.35;;;6.07;;
55330;SDS011;58851;42.984;20.336;2024-03-07T11:14:22;5.68;;;2.90;;
55330;SDS011;58851;42.984;20.336;2024-03-07T11:16:48;11.38;;;6.97;;
55330;SDS011;58851;42.984;20.336;2024-03-07T11:21:54;3.45;;;1.85;;
55330;SDS011;58851;42.984;20.336;2024-03-07T11:24:25;7.85;;;3.03;;
55330;SDS011;58851;42.984;20.336;2024-03-07T11:27:01;9.20;;;4.70;;
55330;SDS011;58851;42.984;20.336;2024-03-07T11:32:11;7.13;;;3.70;;
55330;SDS011;58851;42.984;20.336;2024-03-07T11:34:39;7.72;;;4.72;;
55330;SDS011;58851;42.984;20.336;2024-03-07T11:37:16;11.00;;;4.25;;
55330;SDS011;58851;42.984;20.336;2024-03-07T11:39:46;7.70;;;4.10;;
55330;SDS011;58851;42.984;20.336;2024-03-07T11:45:00;12.25;;;5.00;;
55330;SDS011;58851;42.984;20.336;2024-03-07T11:47:37;9.85;;;4.93;;
55330;SDS011;58851;42.984;20.336;2024-03-07T11:50:07;10.07;;;6.38;;
55330;SDS011;58851;42.984;20.336;2024-03-07T11:52:36;11.13;;;5.53;;
55330;SDS011;58851;42.984;20.336;2024-03-07T11:55:08;11.10;;;8.27;;
55330;SDS011;58851;42.984;20.336;2024-03-07T11:57:34;7.28;;;4.75;;
55330;SDS011;58851;42.984;20.336;2024-03-07T12:00:00;8.77;;;6.50;;
55330;SDS011;58851;42.984;20.336;2024-03-07T12:02:33;12.20;;;7.75;;
55330;SDS011;58851;42.984;20.336;2024-03-07T12:04:59;17.02;;;9.50;;
55330;SDS011;58851;42.984;20.336;2024-03-07T12:07:25;25.38;;;17.60;;
55330;SDS011;58851;42.984;20.336;2024-03-07T12:09:52;8.52;;;5.55;;
55330;SDS011;58851;42.984;20.336;2024-03-07T12:12:21;7.10;;;5.03;;
55330;SDS011;58851;42.984;20.336;2024-03-07T12:14:48;12.35;;;5.20;;
55330;SDS011;58851;42.984;20.336;2024-03-07T12:17:17;6.53;;;4.00;;
55330;SDS011;58851;42.984;20.336;2024-03-07T12:19:44;5.43;;;3.47;;
55330;SDS011;58851;42.984;20.336;2024-03-07T12:22:12;9.82;;;4.90;;
55330;SDS011;58851;42.984;20.336;2024-03-07T12:24:39;5.65;;;3.17;;
55330;SDS011;58851;42.984;20.336;2024-03-07T12:27:09;11.18;;;5.53;;
55330;SDS011;58851;42.984;20.336;2024-03-07T12:29:36;10.82;;;7.07;;
55330;SDS011;58851;42.984;20.336;2024-03-07T12:32:05;10.82;;;7.15;;
55330;SDS011;58851;42.984;20.336;2024-03-07T12:34:33;8.88;;;4.13;;
55330;SDS011;58851;42.984;20.336;2024-03-07T12:37:06;4.15;;;2.30;;
55330;SDS011;58851;42.984;20.336;2024-03-07T12:39:34;16.50;;;10.25;;
55330;SDS011;58851;42.984;20.336;2024-03-07T12:42:20;7.63;;;5.57;;
55330;SDS011;58851;42.984;20.336;2024-03-07T12:44:48;13.32;;;6.22;;
55330;SDS011;58851;42.984;20.336;2024-03-07T12:47:16;16.17;;;5.25;;
55330;SDS011;58851;42.984;20.336;2024-03-07T12:49:43;6.25;;;3.08;;
55330;SDS011;58851;42.984;20.336;2024-03-07T12:52:09;4.57;;;2.67;;
55330;SDS011;58851;42.984;20.336;2024-03-07T12:54:38;5.72;;;1.70;;
55330;SDS011;58851;42.984;20.336;2024-03-07T12:57:07;15.48;;;11.82;;
55330;SDS011;58851;42.984;20.336;2024-03-07T12:59:40;16.30;;;7.45;;
55330;SDS011;58851;42.984;20.336;2024-03-07T13:02:12;11.82;;;6.45;;
55330;SDS011;58851;42.984;20.336;2024-03-07T13:04:38;6.10;;;4.07;;
55330;SDS011;58851;42.984;20.336;2024-03-07T13:07:04;6.40;;;3.58;;
55330;SDS011;58851;42.984;20.336;2024-03-07T13:09:35;6.70;;;4.40;;
55330;SDS011;58851;42.984;20.336;2024-03-07T13:12:03;9.05;;;5.13;;
55330;SDS011;58851;42.984;20.336;2024-03-07T13:14:33;19.88;;;12.93;;
55330;SDS011;58851;42.984;20.336;2024-03-07T13:16:59;18.63;;;12.02;;
55330;SDS011;58851;42.984;20.336;2024-03-07T13:19:28;12.50;;;8.27;;
55330;SDS011;58851;42.984;20.336;2024-03-07T13:21:55;15.10;;;9.82;;
55330;SDS011;58851;42.984;20.336;2024-03-07T13:24:21;24.77;;;14.65;;
55330;SDS011;58851;42.984;20.336;2024-03-07T13:26:48;16.10;;;12.77;;
55330;SDS011;58851;42.984;20.336;2024-03-07T13:29:15;10.05;;;7.05;;
55330;SDS011;58851;42.984;20.336;2024-03-07T13:31:44;13.57;;;9.82;;
55330;SDS011;58851;42.984;20.336;2024-03-07T13:34:11;16.70;;;11.65;;
55330;SDS011;58851;42.984;20.336;2024-03-07T13:36:43;14.02;;;10.35;;
55330;SDS011;58851;42.984;20.336;2024-03-07T13:39:10;29.40;;;17.52;;
55330;SDS011;58851;42.984;20.336;2024-03-07T13:41:42;21.42;;;14.13;;
55330;SDS011;58851;42.984;20.336;2024-03-07T13:44:13;21.45;;;13.23;;
55330;SDS011;58851;42.984;20.336;2024-03-07T13:46:40;12.02;;;7.18;;
55330;SDS011;58851;42.984;20.336;2024-03-07T13:49:06;9.30;;;5.40;;
55330;SDS011;58851;42.984;20.336;2024-03-07T13:51:37;9.77;;;7.60;;
55330;SDS011;58851;42.984;20.336;2024-03-07T13:54:05;23.63;;;15.88;;
55330;SDS011;58851;42.984;20.336;2024-03-07T14:02:34;13.45;;;10.73;;
55330;SDS011;58851;42.984;20.336;2024-03-07T14:13:33;13.48;;;9.45;;
55330;SDS011;58851;42.984;20.336;2024-03-07T14:21:54;9.65;;;6.20;;
55330;SDS011;58851;42.984;20.336;2024-03-07T14:27:49;11.05;;;7.68;;
55330;SDS011;58851;42.984;20.336;2024-03-07T14:33:08;15.63;;;9.60;;
55330;SDS011;58851;42.984;20.336;2024-03-07T14:38:25;10.40;;;7.40;;
55330;SDS011;58851;42.984;20.336;2024-03-07T14:41:05;15.30;;;9.88;;
55330;SDS011;58851;42.984;20.336;2024-03-07T14:43:32;24.27;;;16.90;;
55330;SDS011;58851;42.984;20.336;2024-03-07T14:45:59;19.02;;;13.18;;
55330;SDS011;58851;42.984;20.336;2024-03-07T14:48:25;42.72;;;30.80;;
55330;SDS011;58851;42.984;20.336;2024-03-07T14:50:52;37.75;;;32.15;;
55330;SDS011;58851;42.984;20.336;2024-03-07T14:53:18;19.40;;;17.33;;
55330;SDS011;58851;42.984;20.336;2024-03-07T14:55:48;25.95;;;18.15;;
55330;SDS011;58851;42.984;20.336;2024-03-07T14:58:14;11.52;;;9.95;;
55330;SDS011;58851;42.984;20.336;2024-03-07T15:00:41;9.50;;;6.65;;
55330;SDS011;58851;42.984;20.336;2024-03-07T15:03:14;14.77;;;9.43;;
55330;SDS011;58851;42.984;20.336;2024-03-07T15:05:42;10.80;;;6.43;;
55330;SDS011;58851;42.984;20.336;2024-03-07T15:08:12;9.55;;;5.90;;
55330;SDS011;58851;42.984;20.336;2024-03-07T15:10:40;8.65;;;5.85;;
55330;SDS011;58851;42.984;20.336;2024-03-07T15:13:11;8.65;;;5.47;;
55330;SDS011;58851;42.984;20.336;2024-03-07T15:15:38;18.52;;;11.68;;